Time;durP1;ratioP1;P1;durP2;ratioP2;P2;SDS_P1;SDS_P2;PMS_P1;PMS_P2;Temp;Humidity;BMP_temperature;BMP_pressure;BME280_temperature;BME280_humidity;BME280_pressure;Samples;Min_cycle;Max_cycle;Signal;HPM_P1;HPM_P2
2022/05/01 00:02:22;;;;;;;12.80;8.70;;;;;;;;;;4997449;28;92660;-66
2022/05/01 00:04:49;;;;;;;14.98;9.50;;;;;;;;;;4997681;28;96305;-66
2022/05/01 00:07:15;;;;;;;16.77;10.23;;;;;;;;;;4997515;28;93195;-66
2022/05/01 00:09:41;;;;;;;13.85;10.15;;;;;;;;;;4996449;28;92415;-66
2022/05/01 00:12:08;;;;;;;22.92;10.07;;;;;;;;;;4999840;28;92917;-67
2022/05/01 00:14:35;;;;;;;17.88;10.27;;;;;;;;;;4997302;28;91663;-66
2022/05/01 00:17:01;;;;;;;18.05;10.65;;;;;;;;;;4996536;28;92474;-66
2022/05/01 00:19:28;;;;;;;16.02;9.90;;;;;;;;;;4996408;28;94471;-66
2022/05/01 00:22:14;;;;;;;15.35;9.77;;;;;;;;;;5014803;28;94870;-66
2022/05/01 00:24:40;;;;;;;14.70;10.40;;;;;;;;;;5017022;28;95596;-67
2022/05/01 00:27:07;;;;;;;16.88;10.00;;;;;;;;;;5016371;28;93501;-66
2022/05/01 00:29:33;;;;;;;18.45;11.48;;;;;;;;;;5004192;28;92426;-66
2022/05/01 00:32:00;;;;;;;20.40;11.18;;;;;;;;;;4979447;28;94160;-66
2022/05/01 00:37:11;;;;;;;14.90;10.43;;;;;;;;;;4976240;28;93157;-66
2022/05/01 00:39:37;;;;;;;16.13;10.80;;;;;;;;;;4976942;28;91731;-66
2022/05/01 00:42:04;;;;;;;16.60;11.85;;;;;;;;;;4976397;28;92376;-66
2022/05/01 00:44:30;;;;;;;18.55;11.65;;;;;;;;;;4976284;28;93009;-66
2022/05/01 00:46:59;;;;;;;19.67;11.13;;;;;;;;;;4991036;28;95912;-66
2022/05/01 00:49:27;;;;;;;14.77;10.88;;;;;;;;;;4995823;28;92522;-66
2022/05/01 00:51:55;;;;;;;17.23;11.00;;;;;;;;;;4995959;28;93476;-66
2022/05/01 00:54:30;;;;;;;16.80;11.20;;;;;;;;;;4998870;28;93158;-66
2022/05/01 00:56:59;;;;;;;18.20;11.63;;;;;;;;;;4995923;28;94272;-66
2022/05/01 00:59:26;;;;;;;17.88;11.60;;;;;;;;;;4995899;28;93534;-66
2022/05/01 01:01:52;;;;;;;18.00;11.55;;;;;;;;;;4995964;28;92353;-66
2022/05/01 01:04:19;;;;;;;21.52;12.35;;;;;;;;;;4996520;28;94226;-66
2022/05/01 01:06:45;;;;;;;21.15;11.57;;;;;;;;;;4995202;28;93661;-66
2022/05/01 01:09:12;;;;;;;14.75;11.02;;;;;;;;;;4995745;28;92926;-66
2022/05/01 01:11:39;;;;;;;17.27;11.05;;;;;;;;;;5009964;28;94858;-66
2022/05/01 01:14:06;;;;;;;14.65;10.85;;;;;;;;;;4995514;28;93708;-66
2022/05/01 01:16:34;;;;;;;15.43;11.35;;;;;;;;;;4998328;28;92741;-67
2022/05/01 01:19:01;;;;;;;21.63;11.73;;;;;;;;;;4995492;28;93650;-67
2022/05/01 01:21:28;;;;;;;20.35;12.13;;;;;;;;;;5008171;28;92846;-66
2022/05/01 01:23:54;;;;;;;17.55;12.30;;;;;;;;;;5015516;28;93234;-66
2022/05/01 01:26:21;;;;;;;16.10;11.50;;;;;;;;;;5015408;28;94684;-66
2022/05/01 01:28:47;;;;;;;19.65;11.57;;;;;;;;;;5015408;28;91693;-66
2022/05/01 01:34:00;;;;;;;16.38;12.45;;;;;;;;;;5015089;28;93554;-66
2022/05/01 01:36:28;;;;;;;18.90;11.32;;;;;;;;;;5012567;28;94910;-66
2022/05/01 01:38:55;;;;;;;20.95;11.70;;;;;;;;;;5018165;28;95608;-66
2022/05/01 01:41:22;;;;;;;17.55;11.27;;;;;;;;;;5014877;28;92398;-66
2022/05/01 01:43:49;;;;;;;19.58;11.13;;;;;;;;;;5015214;28;93197;-66
2022/05/01 01:46:15;;;;;;;15.05;11.15;;;;;;;;;;5003719;28;92656;-66
2022/05/01 01:48:43;;;;;;;15.45;10.82;;;;;;;;;;4994790;28;92491;-67
2022/05/01 01:51:09;;;;;;;14.35;10.55;;;;;;;;;;4994808;28;93837;-66
2022/05/01 01:53:35;;;;;;;13.50;10.80;;;;;;;;;;4995576;28;93763;-66
2022/05/01 01:56:02;;;;;;;16.33;10.73;;;;;;;;;;4994605;28;92485;-66
2022/05/01 01:58:29;;;;;;;17.70;11.50;;;;;;;;;;4993979;28;93251;-66
2022/05/01 02:00:56;;;;;;;16.65;10.85;;;;;;;;;;4996380;28;97126;-66
2022/05/01 02:03:23;;;;;;;17.63;11.45;;;;;;;;;;4994762;28;96704;-66
2022/05/01 02:05:50;;;;;;;14.93;11.18;;;;;;;;;;4994337;28;93430;-66
2022/05/01 02:08:17;;;;;;;16.00;11.43;;;;;;;;;;4994636;28;93406;-69
2022/05/01 02:10:49;;;;;;;17.20;11.52;;;;;;;;;;4994713;28;93287;-66
2022/05/01 02:13:16;;;;;;;17.35;11.05;;;;;;;;;;4994759;28;96734;-66
2022/05/01 02:15:43;;;;;;;17.92;11.38;;;;;;;;;;4994592;28;92386;-66
2022/05/01 02:18:09;;;;;;;24.90;11.68;;;;;;;;;;4995028;28;93341;-66
2022/05/01 02:23:20;;;;;;;21.17;10.77;;;;;;;;;;5017455;28;92369;-66
2022/05/01 02:25:47;;;;;;;16.40;10.40;;;;;;;;;;5012627;28;95661;-66
2022/05/01 02:28:14;;;;;;;15.90;11.48;;;;;;;;;;5014476;28;92663;-66
2022/05/01 02:30:40;;;;;;;14.80;10.77;;;;;;;;;;5012774;28;93630;-66
2022/05/01 02:33:07;;;;;;;13.38;10.00;;;;;;;;;;5014219;28;94495;-65
2022/05/01 02:35:34;;;;;;;17.13;10.60;;;;;;;;;;5013596;28;92491;-66
2022/05/01 02:38:04;;;;;;;15.63;10.75;;;;;;;;;;5014378;28;94036;-66
2022/05/01 02:40:31;;;;;;;16.73;10.90;;;;;;;;;;5014024;28;93468;-66
2022/05/01 02:42:58;;;;;;;19.35;11.38;;;;;;;;;;5017756;28;91684;-66
2022/05/01 02:45:24;;;;;;;18.67;11.00;;;;;;;;;;5009901;28;94484;-66
2022/05/01 02:47:51;;;;;;;20.80;11.75;;;;;;;;;;4994000;28;92711;-66
2022/05/01 02:50:17;;;;;;;22.50;11.10;;;;;;;;;;4992481;28;94829;-67
2022/05/01 02:52:44;;;;;;;17.80;11.65;;;;;;;;;;4993850;28;93705;-66
2022/05/01 02:55:10;;;;;;;14.82;10.63;;;;;;;;;;4994315;28;92377;-67
2022/05/01 02:57:36;;;;;;;17.10;10.95;;;;;;;;;;4994128;28;93514;-66
2022/05/01 03:00:04;;;;;;;17.90;11.57;;;;;;;;;;4993679;28;92466;-66
2022/05/01 03:02:31;;;;;;;16.58;10.52;;;;;;;;;;4993859;28;92372;-66
2022/05/01 03:04:58;;;;;;;16.88;10.35;;;;;;;;;;4997066;28;94255;-66
2022/05/01 03:07:24;;;;;;;13.18;10.30;;;;;;;;;;4994695;28;91707;-65
2022/05/01 03:09:52;;;;;;;23.27;10.98;;;;;;;;;;4992796;28;93693;-66
2022/05/01 03:12:19;;;;;;;15.27;10.68;;;;;;;;;;4993817;28;93607;-65
2022/05/01 03:14:45;;;;;;;16.77;10.55;;;;;;;;;;4992379;28;94927;-65
2022/05/01 03:17:12;;;;;;;15.00;10.35;;;;;;;;;;4993513;28;96432;-66
2022/05/01 03:22:23;;;;;;;16.23;10.73;;;;;;;;;;4973936;28;92566;-66
2022/05/01 03:24:50;;;;;;;16.90;10.90;;;;;;;;;;4974202;28;93176;-66
2022/05/01 03:27:17;;;;;;;12.95;9.77;;;;;;;;;;4976623;28;93661;-66
2022/05/01 03:30:15;;;;;;;13.35;9.45;;;;;;;;;;4974212;28;93596;-65
2022/05/01 03:32:30;;;;;;;17.85;10.20;;;;;;;;;;4974503;28;92551;-66
2022/05/01 03:34:56;;;;;;;16.00;10.23;;;;;;;;;;4973746;28;92482;-66
2022/05/01 03:37:23;;;;;;;13.82;10.70;;;;;;;;;;4972505;28;93218;-66
2022/05/01 03:39:49;;;;;;;20.35;10.93;;;;;;;;;;4971856;28;95900;-67
2022/05/01 03:42:15;;;;;;;19.33;10.75;;;;;;;;;;4973634;28;92465;-67
2022/05/01 03:44:42;;;;;;;13.95;10.55;;;;;;;;;;4973478;28;93046;-66
2022/05/01 03:47:08;;;;;;;20.38;10.85;;;;;;;;;;4991741;28;93827;-66
2022/05/01 03:49:34;;;;;;;16.80;10.40;;;;;;;;;;4996543;28;92413;-66
2022/05/01 03:52:00;;;;;;;13.82;10.38;;;;;;;;;;4993161;28;93959;-65
2022/05/01 03:54:27;;;;;;;14.73;10.18;;;;;;;;;;4993245;28;92315;-65
2022/05/01 03:56:53;;;;;;;14.52;10.38;;;;;;;;;;4993638;28;93703;-65
2022/05/01 03:59:19;;;;;;;14.65;11.20;;;;;;;;;;4993085;28;93845;-66
2022/05/01 04:01:46;;;;;;;14.10;10.02;;;;;;;;;;4993334;28;92545;-66
2022/05/01 04:04:13;;;;;;;15.07;9.98;;;;;;;;;;4991406;28;94814;-66
2022/05/01 04:06:39;;;;;;;15.27;10.98;;;;;;;;;;4991573;28;93426;-66
2022/05/01 04:09:05;;;;;;;15.02;10.60;;;;;;;;;;4992963;28;92469;-66
2022/05/01 04:11:32;;;;;;;18.67;10.07;;;;;;;;;;4996159;28;92814;-66
2022/05/01 04:14:00;;;;;;;18.65;11.23;;;;;;;;;;4991817;28;92448;-66
2022/05/01 04:16:26;;;;;;;21.33;10.77;;;;;;;;;;4992815;28;93240;-66
2022/05/01 04:18:53;;;;;;;18.80;10.90;;;;;;;;;;4992503;28;93391;-66
2022/05/01 04:21:19;;;;;;;13.05;10.27;;;;;;;;;;5006170;28;91759;-66
2022/05/01 04:23:46;;;;;;;14.05;10.35;;;;;;;;;;5015603;28;92659;-66
2022/05/01 04:26:12;;;;;;;15.20;11.40;;;;;;;;;;5016214;28;93255;-66
2022/05/01 04:28:38;;;;;;;18.23;10.57;;;;;;;;;;5014449;28;95152;-66
2022/05/01 04:31:05;;;;;;;12.35;10.43;;;;;;;;;;5019186;28;96759;-66
2022/05/01 04:33:31;;;;;;;14.15;10.65;;;;;;;;;;5016025;28;92373;-66
2022/05/01 04:35:58;;;;;;;13.32;10.23;;;;;;;;;;5015734;28;92876;-65
2022/05/01 04:38:25;;;;;;;14.95;9.55;;;;;;;;;;5015453;28;93496;-66
2022/05/01 04:40:54;;;;;;;13.38;9.90;;;;;;;;;;5016748;28;92397;-66
2022/05/01 04:43:24;;;;;;;12.07;9.73;;;;;;;;;;5016186;28;93166;-66
2022/05/01 04:45:52;;;;;;;12.35;9.70;;;;;;;;;;5008983;28;93769;-66
2022/05/01 04:48:19;;;;;;;18.17;10.27;;;;;;;;;;4996415;28;92740;-65
2022/05/01 04:50:46;;;;;;;12.95;10.10;;;;;;;;;;4995552;28;92976;-66
2022/05/01 04:53:14;;;;;;;13.30;9.13;;;;;;;;;;4997459;28;95617;-66
2022/05/01 04:55:41;;;;;;;15.23;9.82;;;;;;;;;;4996372;28;95402;-66
2022/05/01 04:58:08;;;;;;;13.40;10.30;;;;;;;;;;4995955;28;93506;-66
2022/05/01 05:00:35;;;;;;;12.98;10.13;;;;;;;;;;4995550;28;92519;-66
2022/05/01 05:03:02;;;;;;;14.05;9.13;;;;;;;;;;4995454;28;93207;-65
2022/05/01 05:05:31;;;;;;;17.55;10.55;;;;;;;;;;4995826;28;94346;-65
2022/05/01 05:09:53;;;;;;;18.60;10.80;;;;;;;;;;4995750;28;92402;-65
2022/05/01 05:10:47;;;;;;;16.17;10.43;;;;;;;;;;4995705;28;93229;-66
2022/05/01 05:13:26;;;;;;;22.00;12.35;;;;;;;;;;4995512;28;94639;-65
2022/05/01 05:15:59;;;;;;;15.82;10.05;;;;;;;;;;4998346;28;92735;-66
2022/05/01 05:18:27;;;;;;;15.88;10.43;;;;;;;;;;4993672;28;95830;-65
2022/05/01 05:20:53;;;;;;;14.73;9.80;;;;;;;;;;5002920;28;92500;-66
2022/05/01 05:23:19;;;;;;;13.75;9.75;;;;;;;;;;5015869;28;93213;-65
2022/05/01 05:25:45;;;;;;;13.93;10.25;;;;;;;;;;5015849;28;94425;-65
2022/05/01 05:28:12;;;;;;;15.48;10.38;;;;;;;;;;5015235;28;92545;-66
2022/05/01 05:30:38;;;;;;;13.15;10.90;;;;;;;;;;5014960;28;93205;-66
2022/05/01 05:33:05;;;;;;;15.25;11.13;;;;;;;;;;5014144;28;93585;-66
2022/05/01 05:35:31;;;;;;;15.70;11.07;;;;;;;;;;5015114;28;91632;-65
2022/05/01 05:37:57;;;;;;;15.73;11.95;;;;;;;;;;5018091;28;92731;-66
2022/05/01 05:40:24;;;;;;;18.23;11.93;;;;;;;;;;5015058;28;92881;-66
2022/05/01 05:42:50;;;;;;;15.90;11.65;;;;;;;;;;5013112;28;94725;-66
2022/05/01 05:45:16;;;;;;;16.20;11.57;;;;;;;;;;5011560;28;94660;-66
2022/05/01 05:47:42;;;;;;;18.30;12.55;;;;;;;;;;4994935;28;92421;-66
2022/05/01 05:50:09;;;;;;;15.52;11.45;;;;;;;;;;4994910;28;93257;-65
2022/05/01 05:52:35;;;;;;;15.18;11.30;;;;;;;;;;5009951;28;93322;-65
2022/05/01 05:55:02;;;;;;;17.10;11.57;;;;;;;;;;4995095;28;92458;-65
2022/05/01 05:57:28;;;;;;;17.55;13.10;;;;;;;;;;4994435;28;92973;-65
2022/05/01 05:59:54;;;;;;;23.85;12.80;;;;;;;;;;4998394;28;92736;-66
2022/05/01 06:02:20;;;;;;;17.85;12.82;;;;;;;;;;4994554;28;92427;-65
2022/05/01 06:04:47;;;;;;;25.38;14.50;;;;;;;;;;4994057;28;93457;-65
2022/05/01 06:07:13;;;;;;;20.92;14.50;;;;;;;;;;4993158;28;95208;-66
2022/05/01 06:09:43;;;;;;;23.48;14.38;;;;;;;;;;4994553;28;96739;-66
2022/05/01 06:12:10;;;;;;;23.88;14.70;;;;;;;;;;4994255;28;93514;-66
2022/05/01 06:14:36;;;;;;;19.58;13.05;;;;;;;;;;4994320;28;92464;-67
2022/05/01 06:17:03;;;;;;;15.50;13.02;;;;;;;;;;4994417;28;93203;-66
2022/05/01 06:19:29;;;;;;;24.08;14.40;;;;;;;;;;4994360;28;93496;-66
2022/05/01 06:21:55;;;;;;;21.38;14.20;;;;;;;;;;5014166;28;92410;-66
2022/05/01 06:24:21;;;;;;;17.75;12.73;;;;;;;;;;5014605;28;92482;-66
2022/05/01 06:26:48;;;;;;;22.25;13.30;;;;;;;;;;5014044;28;92549;-67
2022/05/01 06:29:14;;;;;;;23.90;13.88;;;;;;;;;;5014417;28;94145;-66
2022/05/01 06:31:41;;;;;;;21.77;13.80;;;;;;;;;;5012297;28;96292;-66
2022/05/01 06:34:11;;;;;;;18.55;13.25;;;;;;;;;;5014195;28;92372;-66
2022/05/01 06:36:37;;;;;;;18.83;14.02;;;;;;;;;;5013599;28;94361;-65
2022/05/01 06:39:03;;;;;;;21.67;12.85;;;;;;;;;;5013945;28;92426;-66
2022/05/01 06:41:29;;;;;;;17.67;13.27;;;;;;;;;;5016990;28;92399;-66
2022/05/01 06:43:56;;;;;;;20.10;13.25;;;;;;;;;;5013465;28;93247;-66
2022/05/01 06:46:22;;;;;;;20.52;13.02;;;;;;;;;;5001514;28;92478;-66
2022/05/01 06:48:48;;;;;;;20.13;13.25;;;;;;;;;;4994159;28;93196;-66
2022/05/01 06:51:15;;;;;;;18.10;13.27;;;;;;;;;;4993697;28;93923;-66
2022/05/01 06:53:41;;;;;;;16.33;12.35;;;;;;;;;;4993849;28;92422;-66
2022/05/01 06:56:07;;;;;;;21.02;12.30;;;;;;;;;;4992174;28;94757;-66
2022/05/01 06:58:35;;;;;;;19.75;13.65;;;;;;;;;;4992366;28;93530;-65
2022/05/01 07:01:01;;;;;;;16.40;12.38;;;;;;;;;;4993804;28;92485;-65
2022/05/01 07:03:28;;;;;;;19.33;13.32;;;;;;;;;;4996798;28;94799;-66
2022/05/01 07:05:54;;;;;;;18.17;12.23;;;;;;;;;;4993317;28;92585;-67
2022/05/01 07:08:21;;;;;;;17.77;13.00;;;;;;;;;;4993697;28;93235;-66
2022/05/01 07:10:47;;;;;;;17.38;12.55;;;;;;;;;;4993472;28;93355;-66
2022/05/01 07:13:13;;;;;;;19.50;12.48;;;;;;;;;;4992954;28;92097;-66
2022/05/01 07:15:39;;;;;;;23.38;13.05;;;;;;;;;;4993747;28;93702;-66
2022/05/01 07:18:06;;;;;;;15.50;11.90;;;;;;;;;;4993444;28;93284;-66
2022/05/01 07:20:35;;;;;;;17.45;12.25;;;;;;;;;;4996931;28;94940;-66
2022/05/01 07:23:02;;;;;;;25.60;12.90;;;;;;;;;;5013461;28;95639;-66
2022/05/01 07:25:28;;;;;;;17.05;12.60;;;;;;;;;;5016436;28;93501;-66
2022/05/01 07:27:55;;;;;;;18.70;12.30;;;;;;;;;;5013630;28;93250;-66
2022/05/01 07:30:21;;;;;;;19.33;11.93;;;;;;;;;;5013418;28;93596;-66
2022/05/01 07:32:47;;;;;;;20.75;12.60;;;;;;;;;;5028898;28;92672;-66
2022/05/01 07:35:13;;;;;;;17.73;11.60;;;;;;;;;;5013381;28;93391;-66
2022/05/01 07:37:40;;;;;;;17.20;11.82;;;;;;;;;;5013594;28;92853;-66
2022/05/01 07:40:06;;;;;;;17.35;12.07;;;;;;;;;;5013363;28;92889;-66
2022/05/01 07:42:32;;;;;;;14.27;11.48;;;;;;;;;;5011878;28;93169;-66
2022/05/01 07:44:59;;;;;;;22.65;11.27;;;;;;;;;;5010708;28;96185;-66
2022/05/01 07:47:25;;;;;;;16.83;10.23;;;;;;;;;;4996483;28;92424;-66
2022/05/01 07:49:51;;;;;;;15.40;10.70;;;;;;;;;;4993338;28;94265;-66
2022/05/01 07:52:18;;;;;;;20.42;10.75;;;;;;;;;;4993054;28;92711;-66
2022/05/01 07:54:44;;;;;;;13.50;10.55;;;;;;;;;;4993479;28;93374;-66
2022/05/01 07:57:10;;;;;;;18.20;10.35;;;;;;;;;;4995741;28;93472;-66
2022/05/01 07:59:36;;;;;;;16.67;10.80;;;;;;;;;;4996891;28;92409;-66
2022/05/01 08:02:03;;;;;;;15.40;10.35;;;;;;;;;;4997338;28;94166;-66
2022/05/01 08:04:30;;;;;;;17.20;8.95;;;;;;;;;;4996237;28;93631;-66
2022/05/01 08:06:57;;;;;;;15.95;9.27;;;;;;;;;;5012208;28;92454;-66
2022/05/01 08:09:23;;;;;;;14.52;9.00;;;;;;;;;;4998478;28;94840;-66
2022/05/01 08:11:50;;;;;;;22.52;8.95;;;;;;;;;;4997069;28;92549;-66
2022/05/01 08:14:16;;;;;;;11.35;8.52;;;;;;;;;;4997121;28;93149;-65
2022/05/01 08:16:42;;;;;;;14.60;8.85;;;;;;;;;;4996749;28;93467;-67
2022/05/01 08:21:54;;;;;;;14.27;8.90;;;;;;;;;;5013229;28;93279;-67
2022/05/01 08:24:20;;;;;;;17.10;9.48;;;;;;;;;;5017164;28;94458;-66
2022/05/01 08:26:49;;;;;;;16.38;8.73;;;;;;;;;;5032388;28;91678;-66
2022/05/01 08:29:15;;;;;;;15.35;9.02;;;;;;;;;;5017253;28;93653;-67
2022/05/01 08:31:47;;;;;;;12.38;8.68;;;;;;;;;;5019542;28;94324;-66
2022/05/01 08:34:14;;;;;;;13.90;8.98;;;;;;;;;;5015445;28;94831;-66
2022/05/01 08:36:40;;;;;;;13.85;7.65;;;;;;;;;;5016342;28;92464;-66
2022/05/01 08:39:06;;;;;;;12.63;7.70;;;;;;;;;;5016752;28;92515;-66
2022/05/01 08:41:33;;;;;;;12.38;8.48;;;;;;;;;;5016690;28;94355;-66
2022/05/01 08:44:00;;;;;;;11.35;7.40;;;;;;;;;;5032289;28;94902;-66
2022/05/01 08:46:41;;;;;;;18.20;7.80;;;;;;;;;;5003497;28;92694;-66
2022/05/01 08:49:08;;;;;;;12.98;7.95;;;;;;;;;;4996802;28;93227;-65
2022/05/01 08:51:35;;;;;;;15.25;7.80;;;;;;;;;;4999838;28;92760;-66
2022/05/01 08:54:05;;;;;;;15.07;7.28;;;;;;;;;;4996524;28;92612;-66
2022/05/01 08:56:33;;;;;;;12.73;6.60;;;;;;;;;;4996534;28;93464;-66
2022/05/01 08:59:00;;;;;;;10.07;5.97;;;;;;;;;;4994965;28;94856;-66
2022/05/01 09:01:29;;;;;;;9.35;6.47;;;;;;;;;;4996130;28;94215;-66
2022/05/01 09:03:55;;;;;;;9.38;7.05;;;;;;;;;;4996053;28;93346;-66
2022/05/01 09:06:22;;;;;;;12.32;6.88;;;;;;;;;;4996204;28;92512;-66
2022/05/01 09:08:51;;;;;;;13.43;7.22;;;;;;;;;;4996313;28;93130;-66
2022/05/01 09:14:03;;;;;;;12.18;6.30;;;;;;;;;;5000151;28;92418;-66
2022/05/01 09:16:29;;;;;;;13.50;6.00;;;;;;;;;;4996558;28;92953;-66
2022/05/01 09:18:56;;;;;;;10.95;4.70;;;;;;;;;;4996235;28;92468;-66
2022/05/01 09:21:22;;;;;;;5.40;4.25;;;;;;;;;;5008058;28;93124;-67
2022/05/01 09:23:48;;;;;;;11.32;4.68;;;;;;;;;;5014103;28;96310;-66
2022/05/01 09:26:15;;;;;;;6.47;3.92;;;;;;;;;;5016194;28;92403;-67
2022/05/01 09:28:52;;;;;;;7.30;3.67;;;;;;;;;;5016240;28;94292;-67
2022/05/01 09:31:38;;;;;;;7.13;4.15;;;;;;;;;;5016115;28;94479;-67
2022/05/01 09:34:17;;;;;;;6.15;3.50;;;;;;;;;;5015874;28;92409;-67
2022/05/01 09:36:44;;;;;;;7.88;4.30;;;;;;;;;;5018407;28;94159;-67
2022/05/01 09:39:10;;;;;;;8.55;4.90;;;;;;;;;;5016201;28;92873;-66
2022/05/01 09:41:42;;;;;;;6.20;4.07;;;;;;;;;;5016556;28;93229;-67
2022/05/01 09:44:15;;;;;;;8.30;4.80;;;;;;;;;;5015533;28;93081;-67
2022/05/01 09:46:42;;;;;;;8.25;4.70;;;;;;;;;;5000655;28;92419;-67
2022/05/01 09:49:16;;;;;;;8.57;5.00;;;;;;;;;;4994722;28;94869;-66
2022/05/01 09:51:46;;;;;;;9.98;4.88;;;;;;;;;;4995529;28;93122;-66
2022/05/01 09:54:21;;;;;;;11.88;5.53;;;;;;;;;;4995707;28;92482;-66
2022/05/01 09:56:49;;;;;;;6.05;4.65;;;;;;;;;;4995873;28;94387;-66
2022/05/01 09:59:16;;;;;;;6.47;4.95;;;;;;;;;;4998305;28;93394;-66
2022/05/01 10:02:03;;;;;;;10.75;5.15;;;;;;;;;;4994583;28;94299;-66
2022/05/01 10:04:30;;;;;;;7.55;5.15;;;;;;;;;;4995362;28;93453;-66
2022/05/01 10:06:57;;;;;;;8.07;5.15;;;;;;;;;;5011270;28;91654;-66
2022/05/01 10:09:30;;;;;;;9.13;4.38;;;;;;;;;;4995563;28;92365;-67
2022/05/01 10:12:03;;;;;;;7.70;4.95;;;;;;;;;;4995131;28;93492;-66
2022/05/01 10:14:29;;;;;;;9.25;5.03;;;;;;;;;;4994198;28;94843;-67
2022/05/01 10:16:58;;;;;;;8.77;5.40;;;;;;;;;;4995512;28;96792;-66
2022/05/01 10:19:25;;;;;;;6.85;5.25;;;;;;;;;;4994900;28;94438;-67
2022/05/01 10:21:52;;;;;;;9.40;4.78;;;;;;;;;;5014340;28;92370;-67
2022/05/01 10:24:19;;;;;;;8.52;5.47;;;;;;;;;;5014885;28;94508;-67
2022/05/01 10:26:46;;;;;;;6.25;4.68;;;;;;;;;;5015350;28;92527;-67
2022/05/01 10:29:31;;;;;;;14.40;5.20;;;;;;;;;;5015153;28;93307;-67
2022/05/01 10:32:22;;;;;;;6.38;4.80;;;;;;;;;;5015680;28;93521;-67
2022/05/01 10:35:12;;;;;;;8.15;5.15;;;;;;;;;;5015216;28;92500;-67
2022/05/01 10:37:38;;;;;;;9.83;5.20;;;;;;;;;;5014579;28;93166;-67
2022/05/01 10:40:06;;;;;;;7.72;4.90;;;;;;;;;;5013542;28;96804;-67
2022/05/01 10:42:38;;;;;;;7.25;4.97;;;;;;;;;;5014774;28;92468;-67
2022/05/01 10:45:22;;;;;;;6.63;5.10;;;;;;;;;;5016229;28;92706;-66
2022/05/01 10:47:51;;;;;;;9.10;5.53;;;;;;;;;;4994883;28;92363;-67
2022/05/01 10:50:25;;;;;;;8.75;5.32;;;;;;;;;;4994772;28;93180;-67
2022/05/01 10:53:04;;;;;;;6.60;5.03;;;;;;;;;;4993496;28;94441;-68
2022/05/01 10:55:51;;;;;;;11.27;4.80;;;;;;;;;;4994761;28;92557;-66
2022/05/01 10:58:18;;;;;;;7.78;5.40;;;;;;;;;;5010432;28;93045;-67
2022/05/01 11:00:45;;;;;;;8.93;5.32;;;;;;;;;;4994570;28;93470;-67
2022/05/01 11:03:21;;;;;;;8.18;5.20;;;;;;;;;;4994600;28;92578;-68
2022/05/01 11:05:52;;;;;;;16.63;5.78;;;;;;;;;;4995596;28;95301;-67
2022/05/01 11:08:19;;;;;;;8.90;4.90;;;;;;;;;;4994553;28;92437;-66
2022/05/01 11:10:46;;;;;;;5.38;4.40;;;;;;;;;;4994830;28;93138;-67
2022/05/01 11:13:31;;;;;;;9.98;5.07;;;;;;;;;;4994165;28;93428;-67
2022/05/01 11:15:57;;;;;;;5.65;4.75;;;;;;;;;;4994334;28;92479;-66
2022/05/01 11:18:27;;;;;;;8.93;5.05;;;;;;;;;;4994324;28;94234;-66
2022/05/01 11:20:54;;;;;;;10.70;5.05;;;;;;;;;;5002394;28;93273;-66
2022/05/01 11:23:29;;;;;;;7.05;4.85;;;;;;;;;;5014682;28;91720;-67
2022/05/01 11:26:05;;;;;;;7.80;4.82;;;;;;;;;;5014703;28;92414;-66
2022/05/01 11:28:44;;;;;;;6.15;5.30;;;;;;;;;;5017073;28;93613;-66
2022/05/01 11:31:29;;;;;;;7.63;4.63;;;;;;;;;;5014114;28;94902;-67
2022/05/01 11:34:14;;;;;;;5.38;4.35;;;;;;;;;;5017857;28;92713;-66
2022/05/01 11:36:53;;;;;;;10.57;5.07;;;;;;;;;;5017959;28;92437;-67
2022/05/01 11:39:20;;;;;;;6.28;4.47;;;;;;;;;;5017863;28;94379;-66
2022/05/01 11:41:57;;;;;;;7.40;4.97;;;;;;;;;;5017573;28;93093;-67
2022/05/01 11:44:24;;;;;;;9.38;5.15;;;;;;;;;;5017904;28;92425;-67
2022/05/01 11:46:55;;;;;;;4.68;4.10;;;;;;;;;;5001402;28;93059;-67
2022/05/01 11:49:22;;;;;;;6.47;4.32;;;;;;;;;;4998384;28;93846;-67
2022/05/01 11:51:50;;;;;;;10.40;4.63;;;;;;;;;;5000523;28;92615;-67
2022/05/01 11:54:18;;;;;;;12.75;4.25;;;;;;;;;;4997417;28;95728;-66
2022/05/01 12:02:27;;;;;;;7.57;4.68;;;;;;;;;;4997353;28;93290;-67
2022/05/01 12:05:02;;;;;;;7.75;4.15;;;;;;;;;;4997536;28;92432;-67
2022/05/01 12:07:28;;;;;;;7.07;4.68;;;;;;;;;;4997375;28;92878;-67
2022/05/01 12:09:55;;;;;;;13.63;4.70;;;;;;;;;;4997221;28;93432;-66
2022/05/01 12:12:26;;;;;;;5.25;4.43;;;;;;;;;;4997530;28;92409;-67
2022/05/01 12:14:52;;;;;;;4.57;4.15;;;;;;;;;;5000478;28;93193;-67
2022/05/01 12:17:20;;;;;;;6.40;4.30;;;;;;;;;;4977782;28;92509;-67
2022/05/01 12:19:54;;;;;;;8.75;4.55;;;;;;;;;;4977599;28;93338;-67
2022/05/01 12:22:23;;;;;;;10.32;4.57;;;;;;;;;;4995264;28;94991;-66
2022/05/01 12:24:53;;;;;;;9.57;4.18;;;;;;;;;;4997425;28;92431;-67
2022/05/01 12:27:24;;;;;;;8.20;4.70;;;;;;;;;;4997283;28;93215;-67
2022/05/01 12:29:50;;;;;;;;;;;;;;;;;;4989143;28;93257;-67
2022/05/01 12:32:17;;;;;;;5.65;4.70;;;;;;;;;;4977847;28;119013;-66
2022/05/01 12:34:43;;;;;;;7.10;4.93;;;;;;;;;;4977066;28;93832;-66
2022/05/01 12:37:19;;;;;;;9.10;5.22;;;;;;;;;;4979676;28;93427;-67
2022/05/01 12:39:57;;;;;;;7.25;4.38;;;;;;;;;;4977672;28;93191;-66
2022/05/01 12:45:09;;;;;;;8.27;4.28;;;;;;;;;;4979275;28;92408;-67
2022/05/01 12:47:37;;;;;;;5.57;4.40;;;;;;;;;;4995431;28;96795;-66
2022/05/01 12:50:08;;;;;;;5.20;4.32;;;;;;;;;;4996583;28;93196;-67
2022/05/01 12:52:36;;;;;;;9.13;4.93;;;;;;;;;;4996921;28;92570;-67
2022/05/01 12:55:03;;;;;;;8.52;4.85;;;;;;;;;;4996814;28;94195;-67
2022/05/01 12:57:30;;;;;;;8.40;4.60;;;;;;;;;;4996632;28;93612;-67
2022/05/01 12:59:57;;;;;;;6.32;4.38;;;;;;;;;;4999547;28;92440;-67
2022/05/01 13:02:23;;;;;;;10.35;4.78;;;;;;;;;;4996441;28;93239;-67
2022/05/01 13:05:00;;;;;;;10.57;4.95;;;;;;;;;;5012270;28;92078;-66
2022/05/01 13:07:30;;;;;;;7.70;5.13;;;;;;;;;;4996731;28;92646;-67
2022/05/01 13:09:57;;;;;;;13.13;4.60;;;;;;;;;;4996154;28;93294;-67
2022/05/01 13:12:41;;;;;;;7.97;5.18;;;;;;;;;;4994670;28;94911;-67
2022/05/01 13:15:08;;;;;;;7.55;4.80;;;;;;;;;;4996036;28;95534;-67
2022/05/01 13:17:36;;;;;;;7.13;4.43;;;;;;;;;;4996353;28;93227;-67
2022/05/01 13:20:02;;;;;;;7.88;4.38;;;;;;;;;;5000562;28;92907;-67
2022/05/01 13:22:28;;;;;;;7.13;4.75;;;;;;;;;;5016044;28;93940;-67
2022/05/01 13:24:57;;;;;;;7.57;4.97;;;;;;;;;;5016226;28;92437;-66
2022/05/01 13:27:25;;;;;;;6.25;4.38;;;;;;;;;;5014623;28;92395;-67
2022/05/01 13:29:52;;;;;;;9.48;4.35;;;;;;;;;;5016661;28;93568;-67
2022/05/01 13:32:19;;;;;;;8.70;4.40;;;;;;;;;;5016370;28;92607;-66
2022/05/01 13:34:45;;;;;;;9.18;4.47;;;;;;;;;;5015911;28;93268;-66
2022/05/01 13:37:12;;;;;;;5.68;4.25;;;;;;;;;;5013659;28;95942;-67
2022/05/01 13:45:09;;;;;;;6.10;4.47;;;;;;;;;;5013800;28;92376;-66
2022/05/01 13:47:36;;;;;;;5.88;4.30;;;;;;;;;;4996212;28;93940;-66
2022/05/01 13:50:05;;;;;;;6.85;4.40;;;;;;;;;;4995614;28;93438;-66
2022/05/01 13:52:31;;;;;;;6.95;4.90;;;;;;;;;;4995598;28;92855;-66
2022/05/01 13:54:58;;;;;;;7.47;4.13;;;;;;;;;;4995433;28;94311;-66
2022/05/01 13:57:24;;;;;;;8.13;4.00;;;;;;;;;;4995631;28;94491;-67
2022/05/01 13:59:50;;;;;;;11.20;4.25;;;;;;;;;;4995707;28;92441;-66
2022/05/01 14:02:17;;;;;;;4.10;3.70;;;;;;;;;;4994012;28;94822;-67
2022/05/01 14:04:45;;;;;;;8.00;4.07;;;;;;;;;;4998329;28;93170;-66
2022/05/01 14:07:11;;;;;;;6.95;3.88;;;;;;;;;;4995380;28;95082;-67
2022/05/01 14:09:37;;;;;;;7.70;3.78;;;;;;;;;;4994984;28;94058;-66
2022/05/01 14:12:06;;;;;;;6.57;3.83;;;;;;;;;;4995723;28;92492;-67
2022/05/01 14:14:32;;;;;;;7.22;4.22;;;;;;;;;;4995406;28;92953;-67
2022/05/01 14:16:58;;;;;;;4.78;3.78;;;;;;;;;;4994957;28;93454;-66
2022/05/01 14:19:27;;;;;;;6.60;4.35;;;;;;;;;;4996005;28;91923;-66
2022/05/01 14:21:57;;;;;;;8.77;4.18;;;;;;;;;;5011079;28;92486;-66
2022/05/01 14:24:45;;;;;;;6.75;4.45;;;;;;;;;;5014821;28;93034;-67
2022/05/01 14:27:11;;;;;;;7.13;4.10;;;;;;;;;;5017089;28;94855;-66
2022/05/01 14:29:37;;;;;;;6.93;4.38;;;;;;;;;;5015285;28;94268;-67
2022/05/01 14:32:17;;;;;;;8.60;5.10;;;;;;;;;;5014858;28;92450;-66
2022/05/01 14:34:51;;;;;;;9.07;4.55;;;;;;;;;;5014726;28;93046;-66
2022/05/01 14:37:20;;;;;;;9.05;4.22;;;;;;;;;;5014674;28;93246;-66
2022/05/01 14:39:48;;;;;;;10.47;4.57;;;;;;;;;;5014803;28;92559;-66
2022/05/01 14:42:16;;;;;;;7.40;3.83;;;;;;;;;;5015390;28;92305;-67
2022/05/01 14:44:50;;;;;;;5.38;4.78;;;;;;;;;;5014926;28;92368;-69
2022/05/01 14:47:27;;;;;;;7.45;4.75;;;;;;;;;;4994993;28;92483;-68
2022/05/01 14:50:00;;;;;;;8.43;5.18;;;;;;;;;;4997681;28;92926;-67
2022/05/01 14:52:28;;;;;;;5.13;4.40;;;;;;;;;;4993345;28;94824;-67
2022/05/01 14:54:56;;;;;;;8.13;4.70;;;;;;;;;;4994550;28;95689;-67
2022/05/01 14:57:22;;;;;;;6.93;4.70;;;;;;;;;;4993606;28;94302;-67
2022/05/01 15:08:22;;;;;;;4.20;3.80;;;;;;;;;;4994242;28;92504;-67
2022/05/01 15:10:48;;;;;;;6.50;5.15;;;;;;;;;;4998451;28;92892;-67
2022/05/01 15:13:15;;;;;;;7.80;4.43;;;;;;;;;;4994717;28;92391;-67
2022/05/01 15:15:48;;;;;;;5.28;4.53;;;;;;;;;;4994239;28;93148;-67